Time;durP1;ratioP1;P1;durP2;ratioP2;P2;SDS_P1;SDS_P2;PMS_P1;PMS_P2;Temp;Humidity;BMP_temperature;BMP_pressure;BME280_temperature;BME280_humidity;BME280_pressure;Samples;Min_cycle;Max_cycle;Signal;HPM_P1;HPM_P2
2023/09/11 00:01:40;;;;;;;3.67;3.38;;;;;;;;;;5024462;28;20091;-59
2023/09/11 00:04:08;;;;;;;3.17;2.97;;;;;;;;;;5022459;28;20846;-59
2023/09/11 00:06:34;;;;;;;2.95;2.75;;;;;;;;;;5024534;28;20134;-59
2023/09/11 00:09:00;;;;;;;2.45;2.25;;;;;;;;;;5016489;28;20390;-59
2023/09/11 00:11:26;;;;;;;3.17;2.97;;;;;;;;;;5021377;28;20717;-59
2023/09/11 00:13:52;;;;;;;3.40;2.42;;;;;;;;;;5024494;28;20036;-59
2023/09/11 00:16:18;;;;;;;3.85;3.47;;;;;;;;;;5024278;28;20077;-59
2023/09/11 00:18:45;;;;;;;3.38;3.10;;;;;;;;;;5025354;28;20440;-59
2023/09/11 00:21:12;;;;;;;4.50;4.15;;;;;;;;;;5024800;28;20041;-59
2023/09/11 00:23:38;;;;;;;3.72;3.42;;;;;;;;;;5022847;28;20095;-59
2023/09/11 00:26:04;;;;;;;4.78;4.15;;;;;;;;;;5024794;28;20049;-59
2023/09/11 00:28:30;;;;;;;4.72;4.32;;;;;;;;;;5024755;28;20505;-62
2023/09/11 00:30:59;;;;;;;5.43;4.93;;;;;;;;;;5024194;28;20037;-61
2023/09/11 00:33:25;;;;;;;4.65;4.25;;;;;;;;;;5023326;28;20124;-61
2023/09/11 00:35:51;;;;;;;9.27;5.50;;;;;;;;;;5024337;28;20045;-62
2023/09/11 00:38:17;;;;;;;6.97;6.18;;;;;;;;;;5024362;28;20037;-61
2023/09/11 00:40:43;;;;;;;5.43;5.03;;;;;;;;;;5024599;28;20908;-61
2023/09/11 00:43:09;;;;;;;4.97;4.57;;;;;;;;;;5024624;28;20124;-61
2023/09/11 00:45:36;;;;;;;4.72;4.32;;;;;;;;;;5023589;28;20048;-61
2023/09/11 00:48:02;;;;;;;5.68;4.93;;;;;;;;;;5024461;28;20056;-62
2023/09/11 00:50:28;;;;;;;5.15;4.50;;;;;;;;;;5023982;28;20042;-62
2023/09/11 00:52:54;;;;;;;3.72;3.42;;;;;;;;;;5023961;28;20063;-62
2023/09/11 00:55:22;;;;;;;3.88;3.58;;;;;;;;;;5024044;28;20045;-61
2023/09/11 00:57:49;;;;;;;3.05;2.85;;;;;;;;;;5025107;28;20030;-61
2023/09/11 01:00:15;;;;;;;3.70;3.40;;;;;;;;;;5023659;28;20405;-61
2023/09/11 01:02:41;;;;;;;4.40;3.45;;;;;;;;;;5024473;28;20509;-61
2023/09/11 01:05:08;;;;;;;3.28;2.97;;;;;;;;;;5024531;28;20044;-61
2023/09/11 01:07:35;;;;;;;3.33;3.08;;;;;;;;;;5023262;28;20075;-61
2023/09/11 01:10:05;;;;;;;2.80;2.60;;;;;;;;;;5023652;28;20104;-61
2023/09/11 01:12:32;;;;;;;4.47;3.65;;;;;;;;;;5023623;28;20052;-61
2023/09/11 01:14:58;;;;;;;4.22;3.33;;;;;;;;;;5024177;28;20125;-61
2023/09/11 01:17:31;;;;;;;3.38;3.08;;;;;;;;;;5024064;28;20049;-61
2023/09/11 01:20:14;;;;;;;2.97;2.78;;;;;;;;;;5023436;28;20045;-62
2023/09/11 01:22:46;;;;;;;4.45;4.13;;;;;;;;;;5027215;28;20048;-61
2023/09/11 01:25:24;;;;;;;6.53;5.13;;;;;;;;;;5027841;28;20120;-61
2023/09/11 01:27:57;;;;;;;5.55;5.05;;;;;;;;;;5027281;28;20041;-61
2023/09/11 01:30:25;;;;;;;4.63;4.32;;;;;;;;;;5027478;28;20084;-61
2023/09/11 01:32:52;;;;;;;4.30;3.90;;;;;;;;;;5027629;28;20033;-61
2023/09/11 01:35:19;;;;;;;4.88;4.18;;;;;;;;;;5027253;28;20588;-61
2023/09/11 01:37:45;;;;;;;3.97;3.67;;;;;;;;;;5025330;28;20660;-61
2023/09/11 01:40:11;;;;;;;3.75;3.45;;;;;;;;;;5026565;28;20068;-61
2023/09/11 01:42:42;;;;;;;5.13;3.45;;;;;;;;;;5026095;28;20379;-61
2023/09/11 01:45:09;;;;;;;2.75;2.55;;;;;;;;;;5026294;28;20033;-61
2023/09/11 01:47:36;;;;;;;3.15;2.92;;;;;;;;;;5026467;28;20065;-61
2023/09/11 01:50:03;;;;;;;2.45;2.25;;;;;;;;;;5027399;28;20052;-61
2023/09/11 01:52:30;;;;;;;2.70;2.58;;;;;;;;;;5027326;28;20056;-61
2023/09/11 01:54:57;;;;;;;3.00;2.53;;;;;;;;;;5026771;28;20041;-61
2023/09/11 01:57:26;;;;;;;2.78;2.58;;;;;;;;;;5026972;28;20044;-62
2023/09/11 01:59:52;;;;;;;2.60;2.40;;;;;;;;;;5024519;28;21009;-61
2023/09/11 02:02:18;;;;;;;2.35;2.20;;;;;;;;;;5027049;28;20676;-61
2023/09/11 02:04:45;;;;;;;2.33;2.13;;;;;;;;;;5027343;28;20053;-62
2023/09/11 02:07:11;;;;;;;3.33;2.65;;;;;;;;;;5027464;28;20053;-61
2023/09/11 02:09:37;;;;;;;3.03;2.55;;;;;;;;;;5024542;28;20041;-61
2023/09/11 02:12:03;;;;;;;2.55;2.35;;;;;;;;;;5027082;28;20131;-61
2023/09/11 02:14:29;;;;;;;2.50;2.30;;;;;;;;;;5025176;28;20077;-62
2023/09/11 02:17:02;;;;;;;1.92;1.80;;;;;;;;;;5025159;28;20049;-61
2023/09/11 02:19:28;;;;;;;2.20;2.10;;;;;;;;;;5025401;28;20068;-61
2023/09/11 02:21:54;;;;;;;2.15;2.00;;;;;;;;;;5026306;28;20054;-61
2023/09/11 02:24:20;;;;;;;2.08;1.98;;;;;;;;;;5026064;28;20046;-61
2023/09/11 02:26:46;;;;;;;2.13;2.03;;;;;;;;;;5026749;28;20124;-61
2023/09/11 02:29:12;;;;;;;2.42;2.28;;;;;;;;;;5026822;28;20121;-61
2023/09/11 02:31:38;;;;;;;2.78;2.58;;;;;;;;;;5023193;28;20034;-62
2023/09/11 02:34:04;;;;;;;2.95;2.38;;;;;;;;;;5025929;28;20041;-61
2023/09/11 02:36:30;;;;;;;3.25;2.30;;;;;;;;;;5026515;28;20744;-62
2023/09/11 02:38:56;;;;;;;2.47;2.28;;;;;;;;;;5025799;28;20107;-61
2023/09/11 02:41:22;;;;;;;2.50;2.30;;;;;;;;;;5026203;28;20040;-61
2023/09/11 02:43:48;;;;;;;2.28;2.00;;;;;;;;;;5026297;28;20038;-61
2023/09/11 02:46:14;;;;;;;3.70;2.20;;;;;;;;;;5026316;28;20077;-61
2023/09/11 02:48:45;;;;;;;2.88;2.67;;;;;;;;;;5025306;28;20172;-61
2023/09/11 02:51:11;;;;;;;3.20;2.90;;;;;;;;;;5025603;28;20052;-61
2023/09/11 02:53:38;;;;;;;2.47;2.28;;;;;;;;;;5025984;28;20052;-62
2023/09/11 02:56:04;;;;;;;3.03;2.40;;;;;;;;;;5026167;28;20367;-61
2023/09/11 02:58:30;;;;;;;2.15;2.05;;;;;;;;;;5024964;28;20045;-61
2023/09/11 03:01:00;;;;;;;2.58;2.38;;;;;;;;;;5024420;28;20163;-61
2023/09/11 03:03:27;;;;;;;3.78;2.63;;;;;;;;;;5025575;28;20046;-62
2023/09/11 03:06:02;;;;;;;2.33;2.13;;;;;;;;;;5025334;28;20041;-61
2023/09/11 03:08:28;;;;;;;2.72;2.53;;;;;;;;;;5023831;28;20048;-61
2023/09/11 03:11:03;;;;;;;2.35;2.15;;;;;;;;;;5025959;28;20041;-61
2023/09/11 03:13:29;;;;;;;2.50;2.35;;;;;;;;;;5025197;28;20045;-61
2023/09/11 03:15:55;;;;;;;2.50;2.30;;;;;;;;;;5025742;28;20100;-61
2023/09/11 03:18:21;;;;;;;2.65;2.38;;;;;;;;;;5026010;28;20052;-62
2023/09/11 03:20:53;;;;;;;2.38;2.20;;;;;;;;;;5025625;28;20041;-62
2023/09/11 03:23:21;;;;;;;2.38;2.28;;;;;;;;;;5025660;28;20537;-61
2023/09/11 03:25:47;;;;;;;2.50;2.15;;;;;;;;;;5024142;28;20398;-61
2023/09/11 03:28:13;;;;;;;2.53;2.33;;;;;;;;;;5026491;28;20306;-61
2023/09/11 03:30:39;;;;;;;2.05;1.88;;;;;;;;;;5025914;28;20122;-61
2023/09/11 03:33:05;;;;;;;2.30;2.20;;;;;;;;;;5025181;28;20634;-61
2023/09/11 03:35:31;;;;;;;2.42;2.22;;;;;;;;;;5024916;28;20033;-62
2023/09/11 03:37:57;;;;;;;3.10;2.90;;;;;;;;;;5025362;28;20076;-61
2023/09/11 03:40:25;;;;;;;2.95;2.65;;;;;;;;;;5024814;28;20042;-62
2023/09/11 03:42:51;;;;;;;2.70;2.50;;;;;;;;;;5025628;28;20092;-61
2023/09/11 03:45:17;;;;;;;2.17;1.98;;;;;;;;;;5025818;28;20041;-61
2023/09/11 03:47:43;;;;;;;2.70;2.33;;;;;;;;;;5024414;28;20099;-62
2023/09/11 03:50:09;;;;;;;3.15;2.13;;;;;;;;;;5025181;28;20555;-61
2023/09/11 03:52:35;;;;;;;2.50;2.30;;;;;;;;;;5024466;28;20068;-59
2023/09/11 03:55:01;;;;;;;2.33;2.13;;;;;;;;;;5022005;28;20037;-59
2023/09/11 03:57:27;;;;;;;2.45;2.15;;;;;;;;;;5023861;28;20096;-59
2023/09/11 03:59:53;;;;;;;2.15;1.95;;;;;;;;;;5025104;28;20033;-58
2023/09/11 04:02:19;;;;;;;2.00;1.90;;;;;;;;;;5024497;28;20562;-59
2023/09/11 04:04:45;;;;;;;1.73;1.63;;;;;;;;;;5025049;28;20037;-59
2023/09/11 04:07:11;;;;;;;2.28;2.08;;;;;;;;;;5024149;28;20045;-59
2023/09/11 04:09:37;;;;;;;1.65;1.55;;;;;;;;;;5023906;28;20424;-59
2023/09/11 04:12:03;;;;;;;2.58;1.90;;;;;;;;;;5025046;28;20033;-59
2023/09/11 04:14:29;;;;;;;2.47;1.95;;;;;;;;;;5024571;28;20053;-59
2023/09/11 04:16:56;;;;;;;2.20;2.10;;;;;;;;;;5023153;28;20038;-59
2023/09/11 04:19:22;;;;;;;2.50;2.30;;;;;;;;;;5023245;28;20052;-59
2023/09/11 04:21:48;;;;;;;2.20;2.10;;;;;;;;;;5025333;28;20120;-59
2023/09/11 04:24:14;;;;;;;3.05;2.10;;;;;;;;;;5024282;28;20125;-59
2023/09/11 04:26:41;;;;;;;2.20;2.10;;;;;;;;;;5022968;28;20566;-59
2023/09/11 04:29:11;;;;;;;1.98;1.77;;;;;;;;;;5024837;28;20120;-59
2023/09/11 04:31:37;;;;;;;2.17;2.03;;;;;;;;;;5024330;28;20084;-59
2023/09/11 04:34:03;;;;;;;2.45;1.50;;;;;;;;;;5022668;28;20616;-59
2023/09/11 04:36:29;;;;;;;1.90;1.80;;;;;;;;;;5006082;28;20085;-59
2023/09/11 04:38:56;;;;;;;2.08;1.90;;;;;;;;;;5024800;28;20039;-59
2023/09/11 04:41:22;;;;;;;1.80;1.65;;;;;;;;;;5024151;28;20080;-59
2023/09/11 04:43:48;;;;;;;2.08;1.80;;;;;;;;;;5024537;28;20045;-59
2023/09/11 04:46:14;;;;;;;3.38;2.22;;;;;;;;;;5023166;28;20053;-59
2023/09/11 04:48:40;;;;;;;2.30;2.10;;;;;;;;;;5023943;28;20049;-59
2023/09/11 04:51:06;;;;;;;1.83;1.70;;;;;;;;;;5022549;28;20153;-59
2023/09/11 04:53:32;;;;;;;3.30;2.33;;;;;;;;;;5024096;28;20042;-59
2023/09/11 04:55:58;;;;;;;2.30;2.08;;;;;;;;;;5024858;28;20030;-59
2023/09/11 04:58:25;;;;;;;1.85;1.75;;;;;;;;;;5027684;28;20115;-59
2023/09/11 05:00:53;;;;;;;2.40;2.20;;;;;;;;;;5028296;28;20076;-59
2023/09/11 05:03:19;;;;;;;2.78;2.58;;;;;;;;;;5028528;28;20531;-59
2023/09/11 05:05:45;;;;;;;2.10;2.00;;;;;;;;;;5028066;28;20120;-59
2023/09/11 05:08:11;;;;;;;3.10;2.33;;;;;;;;;;5028389;28;20576;-59
2023/09/11 05:10:43;;;;;;;2.25;2.10;;;;;;;;;;5027823;28;20574;-59
2023/09/11 05:13:12;;;;;;;2.60;2.40;;;;;;;;;;5026467;28;20478;-59
2023/09/11 05:15:39;;;;;;;3.17;2.88;;;;;;;;;;5027923;28;20068;-59
2023/09/11 05:18:05;;;;;;;2.33;2.13;;;;;;;;;;5028259;28;20127;-59
2023/09/11 05:20:31;;;;;;;2.20;2.10;;;;;;;;;;5026890;28;20378;-58
2023/09/11 05:22:57;;;;;;;2.30;1.80;;;;;;;;;;5027978;28;20029;-58
2023/09/11 05:25:23;;;;;;;2.42;1.75;;;;;;;;;;5027334;28;20048;-59
2023/09/11 05:27:50;;;;;;;1.70;1.60;;;;;;;;;;5027801;28;20037;-58
2023/09/11 05:30:16;;;;;;;2.60;2.40;;;;;;;;;;5027465;28;20045;-59
2023/09/11 05:32:42;;;;;;;1.92;1.80;;;;;;;;;;5026869;28;20160;-59
2023/09/11 05:35:08;;;;;;;2.00;1.90;;;;;;;;;;5027152;28;20041;-59
2023/09/11 05:37:34;;;;;;;3.03;2.63;;;;;;;;;;5027640;28;20041;-59
2023/09/11 05:40:02;;;;;;;6.93;2.30;;;;;;;;;;5028548;28;20040;-58
2023/09/11 05:42:28;;;;;;;2.72;2.53;;;;;;;;;;5024825;28;20041;-59
2023/09/11 05:44:55;;;;;;;3.03;2.70;;;;;;;;;;5027522;28;20658;-59
2023/09/11 05:47:21;;;;;;;2.30;2.10;;;;;;;;;;5026290;28;20238;-59
2023/09/11 05:49:47;;;;;;;2.67;2.47;;;;;;;;;;5027582;28;20049;-58
2023/09/11 05:52:13;;;;;;;2.83;2.30;;;;;;;;;;5027417;28;20986;-59
2023/09/11 05:54:41;;;;;;;2.30;2.10;;;;;;;;;;5022640;28;20156;-59
2023/09/11 05:57:07;;;;;;;2.30;2.10;;;;;;;;;;5026532;28;20123;-59
2023/09/11 05:59:33;;;;;;;2.38;1.85;;;;;;;;;;5021923;28;20553;-59
2023/09/11 06:01:59;;;;;;;2.10;1.80;;;;;;;;;;5021998;28;20034;-59
2023/09/11 06:04:25;;;;;;;3.88;2.58;;;;;;;;;;5027040;28;20042;-59
2023/09/11 06:06:51;;;;;;;2.30;2.10;;;;;;;;;;5028061;28;20099;-59
2023/09/11 06:09:17;;;;;;;2.50;2.30;;;;;;;;;;5025343;28;20129;-59
2023/09/11 06:11:43;;;;;;;2.83;2.47;;;;;;;;;;5026886;28;20327;-59
2023/09/11 06:14:09;;;;;;;2.53;2.33;;;;;;;;;;5027119;28;20514;-59
2023/09/11 06:16:35;;;;;;;2.70;2.50;;;;;;;;;;5019897;28;20490;-59
2023/09/11 06:19:01;;;;;;;3.20;2.90;;;;;;;;;;5024863;28;20049;-59
2023/09/11 06:21:28;;;;;;;4.05;2.53;;;;;;;;;;5024836;28;20047;-59
2023/09/11 06:23:54;;;;;;;2.60;2.40;;;;;;;;;;5026481;28;20582;-60
2023/09/11 06:26:20;;;;;;;2.20;2.10;;;;;;;;;;5028183;28;20037;-59
2023/09/11 06:28:46;;;;;;;2.33;2.13;;;;;;;;;;5027143;28;20128;-59
2023/09/11 06:31:12;;;;;;;2.10;2.00;;;;;;;;;;5025517;28;20033;-59
2023/09/11 06:33:38;;;;;;;2.50;2.30;;;;;;;;;;5027499;28;20037;-59
2023/09/11 06:36:04;;;;;;;2.63;2.42;;;;;;;;;;5026897;28;20041;-60
2023/09/11 06:38:30;;;;;;;2.70;2.47;;;;;;;;;;5027579;28;20041;-61
2023/09/11 06:40:56;;;;;;;2.20;2.10;;;;;;;;;;5020706;28;20120;-59
2023/09/11 06:43:22;;;;;;;2.75;2.55;;;;;;;;;;5027367;28;20145;-59
2023/09/11 06:45:54;;;;;;;4.07;3.00;;;;;;;;;;5027596;28;20033;-59
2023/09/11 06:48:21;;;;;;;3.00;2.80;;;;;;;;;;5025223;28;20055;-59
2023/09/11 06:50:47;;;;;;;3.58;3.28;;;;;;;;;;5025487;28;20050;-59
2023/09/11 06:53:14;;;;;;;4.45;3.03;;;;;;;;;;5027053;28;20047;-59
2023/09/11 06:55:49;;;;;;;4.70;3.28;;;;;;;;;;5025757;28;20718;-60
2023/09/11 06:58:15;;;;;;;4.05;3.60;;;;;;;;;;5018074;28;20047;-60
2023/09/11 07:00:41;;;;;;;4.05;3.58;;;;;;;;;;5015760;28;20057;-59
2023/09/11 07:03:07;;;;;;;3.45;3.22;;;;;;;;;;5015619;28;20038;-59
2023/09/11 07:05:35;;;;;;;2.97;2.72;;;;;;;;;;5016459;28;20045;-59
2023/09/11 07:08:01;;;;;;;2.88;2.67;;;;;;;;;;5018536;28;20037;-60
2023/09/11 07:10:27;;;;;;;3.55;2.80;;;;;;;;;;5018282;28;20435;-59
2023/09/11 07:12:53;;;;;;;3.65;3.20;;;;;;;;;;5015157;28;20034;-59
2023/09/11 07:15:19;;;;;;;7.13;5.50;;;;;;;;;;5020022;28;20683;-59
2023/09/11 07:17:47;;;;;;;5.22;4.20;;;;;;;;;;5025190;28;20041;-59
2023/09/11 07:20:13;;;;;;;4.60;4.15;;;;;;;;;;5025581;28;20045;-60
2023/09/11 07:22:39;;;;;;;5.43;4.30;;;;;;;;;;5025512;28;20044;-60
2023/09/11 07:25:11;;;;;;;4.63;4.18;;;;;;;;;;5024482;28;20737;-59
2023/09/11 07:27:37;;;;;;;5.38;4.00;;;;;;;;;;5026169;28;20501;-59
2023/09/11 07:30:03;;;;;;;6.78;4.53;;;;;;;;;;5026544;28;20113;-59
2023/09/11 07:32:30;;;;;;;6.40;4.45;;;;;;;;;;5025724;28;20136;-59
2023/09/11 07:34:56;;;;;;;4.90;4.40;;;;;;;;;;5017167;28;20076;-59
2023/09/11 07:37:22;;;;;;;6.13;4.25;;;;;;;;;;5015261;28;20037;-60
2023/09/11 07:39:48;;;;;;;5.03;4.50;;;;;;;;;;5014380;28;20069;-60
2023/09/11 07:42:14;;;;;;;6.78;4.00;;;;;;;;;;5016887;28;20107;-60
2023/09/11 07:44:41;;;;;;;4.57;4.18;;;;;;;;;;5015192;28;20041;-60
2023/09/11 07:47:07;;;;;;;4.57;4.15;;;;;;;;;;5014769;28;20099;-60
2023/09/11 07:49:33;;;;;;;4.53;4.20;;;;;;;;;;5012885;28;20050;-59
2023/09/11 07:51:59;;;;;;;3.95;3.60;;;;;;;;;;5012769;28;20053;-59
2023/09/11 07:54:25;;;;;;;4.28;3.85;;;;;;;;;;5014757;28;20042;-59
2023/09/11 07:56:52;;;;;;;3.25;3.03;;;;;;;;;;5017321;28;20371;-60
2023/09/11 07:59:18;;;;;;;3.28;3.03;;;;;;;;;;5017294;28;20053;-60
2023/09/11 08:01:44;;;;;;;5.65;4.30;;;;;;;;;;5013890;28;20049;-60
2023/09/11 08:04:10;;;;;;;4.45;3.70;;;;;;;;;;5014348;28;20113;-60
2023/09/11 08:06:36;;;;;;;3.90;3.53;;;;;;;;;;5016159;28;20040;-60
2023/09/11 08:09:05;;;;;;;5.55;4.53;;;;;;;;;;5016805;28;20033;-60
2023/09/11 08:11:34;;;;;;;4.82;4.45;;;;;;;;;;5016946;28;20068;-60
2023/09/11 08:14:00;;;;;;;5.13;4.55;;;;;;;;;;5015334;28;20120;-60
2023/09/11 08:16:26;;;;;;;7.30;4.90;;;;;;;;;;5022550;28;20037;-60
2023/09/11 08:18:53;;;;;;;5.47;4.20;;;;;;;;;;5024346;28;20037;-59
2023/09/11 08:21:20;;;;;;;4.15;3.85;;;;;;;;;;5022778;28;20233;-61
2023/09/11 08:23:46;;;;;;;3.30;3.10;;;;;;;;;;5025755;28;20060;-60
2023/09/11 08:26:12;;;;;;;3.70;3.40;;;;;;;;;;5022503;28;20133;-59
2023/09/11 08:28:38;;;;;;;5.25;4.05;;;;;;;;;;5024625;28;20776;-60
2023/09/11 08:31:04;;;;;;;5.97;4.80;;;;;;;;;;5024612;28;20081;-60
2023/09/11 08:33:30;;;;;;;4.30;4.00;;;;;;;;;;5025438;28;20045;-60
2023/09/11 08:35:57;;;;;;;4.10;3.70;;;;;;;;;;5024790;28;20129;-60
2023/09/11 08:38:23;;;;;;;5.80;4.63;;;;;;;;;;5025175;28;20037;-60
2023/09/11 08:40:49;;;;;;;4.10;3.72;;;;;;;;;;5021583;28;20041;-59
2023/09/11 08:43:15;;;;;;;4.10;3.80;;;;;;;;;;5020307;28;20510;-59
2023/09/11 08:45:41;;;;;;;5.47;4.65;;;;;;;;;;5019156;28;20049;-60
2023/09/11 08:48:14;;;;;;;5.03;4.53;;;;;;;;;;5017545;28;20077;-60
2023/09/11 08:50:48;;;;;;;4.45;4.05;;;;;;;;;;5017896;28;20576;-58
2023/09/11 08:53:17;;;;;;;3.70;3.40;;;;;;;;;;5019945;28;20064;-58
2023/09/11 08:55:43;;;;;;;3.60;3.40;;;;;;;;;;5016714;28;20108;-60
2023/09/11 08:58:11;;;;;;;3.60;3.30;;;;;;;;;;5017682;28;20124;-58
2023/09/11 09:00:37;;;;;;;3.30;3.00;;;;;;;;;;5024958;28;20041;-58
2023/09/11 09:03:03;;;;;;;3.50;3.17;;;;;;;;;;5027634;28;20069;-57
2023/09/11 09:05:30;;;;;;;3.90;3.53;;;;;;;;;;5026731;28;20037;-57
2023/09/11 09:07:57;;;;;;;4.60;3.47;;;;;;;;;;5020761;28;20088;-58
2023/09/11 09:10:23;;;;;;;4.97;4.35;;;;;;;;;;5022492;28;20073;-57
2023/09/11 09:12:50;;;;;;;4.55;4.07;;;;;;;;;;5024129;28;20084;-58
2023/09/11 09:15:17;;;;;;;3.30;3.00;;;;;;;;;;5024737;28;20517;-58
2023/09/11 09:17:43;;;;;;;3.65;3.35;;;;;;;;;;5024319;28;20049;-58
2023/09/11 09:20:10;;;;;;;3.28;2.97;;;;;;;;;;5025010;28;20087;-57
2023/09/11 09:22:50;;;;;;;3.20;3.00;;;;;;;;;;5023668;28;20037;-57
2023/09/11 09:25:16;;;;;;;3.35;3.10;;;;;;;;;;5022047;28;20056;-57
2023/09/11 09:27:42;;;;;;;4.07;3.70;;;;;;;;;;5024611;28;20053;-58
2023/09/11 09:30:18;;;;;;;3.40;3.17;;;;;;;;;;5025206;28;20053;-57
2023/09/11 09:32:44;;;;;;;2.50;2.30;;;;;;;;;;5024219;28;20318;-57
2023/09/11 09:35:10;;;;;;;4.15;3.85;;;;;;;;;;5024566;28;20140;-58
2023/09/11 09:37:36;;;;;;;4.35;3.95;;;;;;;;;;5023125;28;20033;-58
2023/09/11 09:40:04;;;;;;;4.13;3.42;;;;;;;;;;5021664;28;20061;-58
2023/09/11 09:42:40;;;;;;;6.35;4.80;;;;;;;;;;5024415;28;20041;-58
2023/09/11 09:45:06;;;;;;;6.22;4.72;;;;;;;;;;5027914;28;20401;-58
2023/09/11 09:47:32;;;;;;;4.40;4.00;;;;;;;;;;5027076;28;20076;-58
2023/09/11 09:49:58;;;;;;;3.47;3.17;;;;;;;;;;5028099;28;20409;-58
2023/09/11 09:52:28;;;;;;;5.88;5.20;;;;;;;;;;5022936;28;20061;-58
2023/09/11 09:54:57;;;;;;;4.18;3.78;;;;;;;;;;5022464;28;20457;-58
2023/09/11 09:57:24;;;;;;;4.30;3.90;;;;;;;;;;5028103;28;20043;-58
2023/09/11 09:59:52;;;;;;;5.85;5.22;;;;;;;;;;5019012;28;20493;-58
2023/09/11 10:02:29;;;;;;;5.65;4.97;;;;;;;;;;5028071;28;20046;-58
2023/09/11 10:04:56;;;;;;;6.25;5.25;;;;;;;;;;5027204;28;20045;-58
2023/09/11 10:07:42;;;;;;;5.43;5.03;;;;;;;;;;5027540;28;20409;-59
2023/09/11 10:10:23;;;;;;;4.88;4.47;;;;;;;;;;5025862;28;20112;-58
2023/09/11 10:13:09;;;;;;;5.50;5.00;;;;;;;;;;5021902;28;20127;-59
2023/09/11 10:15:39;;;;;;;4.28;3.88;;;;;;;;;;5026145;28;20049;-59
2023/09/11 10:18:06;;;;;;;4.68;4.10;;;;;;;;;;5027989;28;20748;-58
2023/09/11 10:20:33;;;;;;;5.72;4.65;;;;;;;;;;5026983;28;20589;-58
2023/09/11 10:23:00;;;;;;;5.38;4.50;;;;;;;;;;5026452;28;20546;-58
2023/09/11 10:25:27;;;;;;;5.10;4.70;;;;;;;;;;5027675;28;20102;-59
2023/09/11 10:27:58;;;;;;;5.88;5.20;;;;;;;;;;5025261;28;20045;-59
2023/09/11 10:30:26;;;;;;;6.10;5.13;;;;;;;;;;5021750;28;20124;-58
2023/09/11 10:32:57;;;;;;;5.70;4.60;;;;;;;;;;5027624;28;20506;-59
2023/09/11 10:35:23;;;;;;;5.50;5.05;;;;;;;;;;5020281;28;20072;-58
2023/09/11 10:37:51;;;;;;;7.15;6.38;;;;;;;;;;5024383;28;20049;-59
2023/09/11 10:40:17;;;;;;;7.03;6.43;;;;;;;;;;5021888;28;20602;-59
2023/09/11 10:42:44;;;;;;;7.88;7.07;;;;;;;;;;5023529;28;20120;-59
2023/09/11 10:45:30;;;;;;;6.88;6.28;;;;;;;;;;5020912;28;20599;-59
2023/09/11 10:47:56;;;;;;;7.30;6.05;;;;;;;;;;5020626;28;20128;-58
2023/09/11 10:50:43;;;;;;;5.88;5.35;;;;;;;;;;5024637;28;20647;-58
2023/09/11 10:53:10;;;;;;;4.55;4.15;;;;;;;;;;5023027;28;20552;-59
2023/09/11 10:55:36;;;;;;;5.13;4.72;;;;;;;;;;5024809;28;20033;-58
2023/09/11 10:58:05;;;;;;;4.90;4.50;;;;;;;;;;5023287;28;20061;-58
2023/09/11 11:00:38;;;;;;;5.63;5.13;;;;;;;;;;5018889;28;20073;-60
2023/09/11 11:03:04;;;;;;;5.57;5.07;;;;;;;;;;5023059;28;20159;-59
2023/09/11 11:05:32;;;;;;;5.57;5.05;;;;;;;;;;5020566;28;20033;-59
2023/09/11 11:07:58;;;;;;;5.57;5.07;;;;;;;;;;5024541;28;20041;-58
2023/09/11 11:10:24;;;;;;;5.32;4.93;;;;;;;;;;5025406;28;20774;-58
2023/09/11 11:13:04;;;;;;;4.60;4.28;;;;;;;;;;5023246;28;20051;-59
2023/09/11 11:15:30;;;;;;;4.47;4.18;;;;;;;;;;5021996;28;20463;-59
2023/09/11 11:18:06;;;;;;;4.60;4.20;;;;;;;;;;5019607;28;20069;-58
2023/09/11 11:20:32;;;;;;;5.25;4.75;;;;;;;;;;5024496;28;20041;-59
2023/09/11 11:23:09;;;;;;;3.88;3.58;;;;;;;;;;5025604;28;20065;-57
2023/09/11 11:25:35;;;;;;;4.07;3.78;;;;;;;;;;5022744;28;20041;-59
2023/09/11 11:28:08;;;;;;;3.70;3.40;;;;;;;;;;5023176;28;20034;-59
2023/09/11 11:30:35;;;;;;;3.58;3.28;;;;;;;;;;5022107;28;20114;-59
2023/09/11 11:33:04;;;;;;;2.60;2.40;;;;;;;;;;5023365;28;20068;-59
2023/09/11 11:35:31;;;;;;;3.78;3.47;;;;;;;;;;5019760;28;20072;-59
2023/09/11 11:37:57;;;;;;;3.55;3.25;;;;;;;;;;5023726;28;20037;-59
2023/09/11 11:40:23;;;;;;;3.38;3.17;;;;;;;;;;5022922;28;20091;-58
2023/09/11 11:42:50;;;;;;;4.93;4.53;;;;;;;;;;5020911;28;20041;-58
2023/09/11 11:45:16;;;;;;;5.28;4.78;;;;;;;;;;5023181;28;20046;-58
2023/09/11 11:47:42;;;;;;;5.65;4.95;;;;;;;;;;5018722;28;20512;-63
2023/09/11 11:50:11;;;;;;;4.38;3.85;;;;;;;;;;5022781;28;20073;-57
2023/09/11 11:52:37;;;;;;;4.22;3.92;;;;;;;;;;5021287;28;20037;-57
2023/09/11 11:55:24;;;;;;;5.47;3.30;;;;;;;;;;5023628;28;20041;-57
2023/09/11 11:57:52;;;;;;;3.63;3.30;;;;;;;;;;5020219;28;20128;-57
2023/09/11 12:00:18;;;;;;;3.17;2.97;;;;;;;;;;5018317;28;20053;-57
2023/09/11 12:02:44;;;;;;;3.38;3.08;;;;;;;;;;5022205;28;20716;-58
2023/09/11 12:05:13;;;;;;;2.30;2.20;;;;;;;;;;5019822;28;20045;-58
2023/09/11 12:07:40;;;;;;;2.33;2.20;;;;;;;;;;5023216;28;20041;-58
2023/09/11 12:10:11;;;;;;;3.17;2.88;;;;;;;;;;5024023;28;20401;-59
2023/09/11 12:12:39;;;;;;;3.33;3.00;;;;;;;;;;5021368;28;20029;-58
2023/09/11 12:15:06;;;;;;;3.38;3.08;;;;;;;;;;5024777;28;20045;-58
2023/09/11 12:17:32;;;;;;;3.75;2.55;;;;;;;;;;5024464;28;20099;-58
2023/09/11 12:20:09;;;;;;;2.58;2.30;;;;;;;;;;5023195;28;20385;-57
2023/09/11 12:22:35;;;;;;;2.17;2.08;;;;;;;;;;5010635;28;20076;-58
2023/09/11 12:25:01;;;;;;;2.80;2.60;;;;;;;;;;5019438;28;20048;-58
2023/09/11 12:27:27;;;;;;;2.33;2.13;;;;;;;;;;5019094;28;20513;-58
2023/09/11 12:29:57;;;;;;;2.30;2.10;;;;;;;;;;5020932;28;20055;-57
2023/09/11 12:32:23;;;;;;;1.75;1.50;;;;;;;;;;5020240;28;20440;-57
2023/09/11 12:34:50;;;;;;;1.98;1.88;;;;;;;;;;5018785;28;20038;-57
2023/09/11 12:37:16;;;;;;;2.75;2.10;;;;;;;;;;5021800;28;20490;-58
2023/09/11 12:39:42;;;;;;;4.68;3.13;;;;;;;;;;5023148;28;20103;-58
2023/09/11 12:42:08;;;;;;;4.15;2.70;;;;;;;;;;5023549;28;20033;-58
2023/09/11 12:44:34;;;;;;;2.90;2.55;;;;;;;;;;5018439;28;20047;-58
2023/09/11 12:47:00;;;;;;;8.77;2.53;;;;;;;;;;5021823;28;20056;-59
2023/09/11 12:49:27;;;;;;;3.40;1.95;;;;;;;;;;5021283;28;20065;-58
2023/09/11 12:51:54;;;;;;;2.30;2.10;;;;;;;;;;5015018;28;20076;-57
2023/09/11 12:54:21;;;;;;;2.60;2.15;;;;;;;;;;5018908;28;20041;-58
2023/09/11 12:56:50;;;;;;;2.50;2.30;;;;;;;;;;5016429;28;20034;-57
2023/09/11 12:59:16;;;;;;;3.00;2.33;;;;;;;;;;5024656;28;20075;-58
2023/09/11 13:01:42;;;;;;;2.90;2.10;;;;;;;;;;5024453;28;20371;-57
2023/09/11 13:04:08;;;;;;;2.55;2.30;;;;;;;;;;5024592;28;20072;-57
2023/09/11 13:06:34;;;;;;;1.45;1.35;;;;;;;;;;5025254;28;20994;-58
2023/09/11 13:09:00;;;;;;;2.17;2.03;;;;;;;;;;5025025;28;20076;-57
2023/09/11 13:11:26;;;;;;;2.47;1.90;;;;;;;;;;5024533;28;20073;-58
2023/09/11 13:13:52;;;;;;;2.83;2.03;;;;;;;;;;5023823;28;20040;-58
2023/09/11 13:16:18;;;;;;;3.15;2.85;;;;;;;;;;5015495;28;20513;-58
2023/09/11 13:18:45;;;;;;;2.60;2.40;;;;;;;;;;5016193;28;20124;-57
2023/09/11 13:21:11;;;;;;;5.13;2.92;;;;;;;;;;5016053;28;20057;-58
2023/09/11 13:23:37;;;;;;;3.33;2.55;;;;;;;;;;5016180;28;20483;-58
2023/09/11 13:26:03;;;;;;;2.78;2.58;;;;;;;;;;5018374;28;20041;-58
2023/09/11 13:28:29;;;;;;;2.55;2.13;;;;;;;;;;5019858;28;20045;-58
2023/09/11 13:30:59;;;;;;;2.60;2.40;;;;;;;;;;5018681;28;20057;-58
2023/09/11 13:33:25;;;;;;;2.20;2.10;;;;;;;;;;5017405;28;20054;-57
2023/09/11 13:35:51;;;;;;;3.40;2.08;;;;;;;;;;5017069;28;20104;-58
2023/09/11 13:38:18;;;;;;;2.38;2.13;;;;;;;;;;5019780;28;20053;-58
2023/09/11 13:40:47;;;;;;;2.15;2.05;;;;;;;;;;5020188;28;20142;-58
2023/09/11 13:43:14;;;;;;;2.65;1.88;;;;;;;;;;5028384;28;20052;-58
2023/09/11 13:45:40;;;;;;;3.28;2.50;;;;;;;;;;5027568;28;20048;-58
2023/09/11 13:48:06;;;;;;;2.83;1.98;;;;;;;;;;5028400;28;20104;-57
2023/09/11 13:50:32;;;;;;;2.45;2.25;;;;;;;;;;5028185;28;20052;-57
2023/09/11 13:52:58;;;;;;;2.40;2.20;;;;;;;;;;5027770;28;20033;-58
2023/09/11 13:55:24;;;;;;;1.83;1.70;;;;;;;;;;5027824;28;20053;-58
2023/09/11 13:57:50;;;;;;;2.42;2.22;;;;;;;;;;5027797;28;20037;-57
2023/09/11 14:00:17;;;;;;;2.75;2.38;;;;;;;;;;5027210;28;20116;-58
2023/09/11 14:02:43;;;;;;;2.40;2.20;;;;;;;;;;5027794;28;20487;-58
2023/09/11 14:05:09;;;;;;;2.30;2.10;;;;;;;;;;5027878;28;20045;-58
2023/09/11 14:07:35;;;;;;;2.30;2.10;;;;;;;;;;5027401;28;20049;-57
2023/09/11 14:10:03;;;;;;;4.45;2.47;;;;;;;;;;5027818;28;20038;-58
2023/09/11 14:12:30;;;;;;;2.50;2.30;;;;;;;;;;5027605;28;20052;-58
2023/09/11 14:14:56;;;;;;;2.38;2.17;;;;;;;;;;5027274;28;20069;-58
2023/09/11 14:17:22;;;;;;;3.25;2.95;;;;;;;;;;5027596;28;20122;-58
2023/09/11 14:19:48;;;;;;;2.95;2.67;;;;;;;;;;5017661;28;20041;-58
2023/09/11 14:22:14;;;;;;;2.80;2.60;;;;;;;;;;5015891;28;20737;-58
2023/09/11 14:24:40;;;;;;;3.50;3.20;;;;;;;;;;5016256;28;20052;-58
2023/09/11 14:27:07;;;;;;;4.78;3.17;;;;;;;;;;5018803;28;20127;-58
2023/09/11 14:29:33;;;;;;;3.15;2.90;;;;;;;;;;5018059;28;20046;-57
2023/09/11 14:31:59;;;;;;;2.20;2.00;;;;;;;;;;5017346;28;20056;-58
2023/09/11 14:34:24;;;;;;;3.05;2.75;;;;;;;;;;5015502;28;20081;-59
2023/09/11 14:36:50;;;;;;;3.63;3.33;;;;;;;;;;5016245;28;20044;-58
2023/09/11 14:39:16;;;;;;;2.50;2.40;;;;;;;;;;5019445;28;20072;-58
2023/09/11 14:41:43;;;;;;;2.45;2.25;;;;;;;;;;5018305;28;20485;-58
2023/09/11 14:44:11;;;;;;;2.33;2.13;;;;;;;;;;5017849;28;20037;-58